Armiesburg, Indiana
Current Conditions -  °F | °C
As of 6:15 AM on Tuesday 21 Oct 2014 (Local Time) from KPRG Reporting Station
Haze Haze  
Wind Chill: 45°   Ceiling: 5000
Heat Index: 45°   Visibility: 4mi
Dew Point: 45°   Wind: 0mph
Humidity: 99%   Direction: NA
Pressure: 30.04"   Gusts: NA
Location:  39.8207°N, 87.3335°W
Report Text: KPRG 211015Z AUTO 00000KT 4SM BR OVC050 07/07 A3004 RMK AO2 T00710070
Loading
Personal Weather Stations






























Interactive Weather Map
Tropical Storm Tracking
New forecast layout! Learn more

10-Day Weather Forecast

Advertisements
Track Severe Weather on mobile